Time;durP1;ratioP1;P1;durP2;ratioP2;P2;SDS_P1;SDS_P2;PMS_P1;PMS_P2;Temp;Humidity;BMP_temperature;BMP_pressure;BME280_temperature;BME280_humidity;BME280_pressure;Samples;Min_cycle;Max_cycle;Signal;HPM_P1;HPM_P2
2024/03/26 00:01:20;;;;;;;;;;;;;;;;;;109685;1250;59932;-81
2024/03/26 00:03:46;;;;;;;;;;;;;;;;;;109705;1249;59851;-79
2024/03/26 00:06:13;;;;;;;;;;;;;;;;;;109685;1250;59870;-82
2024/03/26 00:08:39;;;;;;;;;;;;;;;;;;109676;1250;59742;-79
2024/03/26 00:11:05;;;;;;;;;;;;;;;;;;109682;1250;59656;-79
2024/03/26 00:13:31;;;;;;;;;;;;;;;;;;108053;1250;62090;-81
2024/03/26 00:15:57;;;;;;;;;;;;;;;;;;107183;1250;61951;-81
2024/03/26 00:18:23;;;;;;;;;;;;;;;;;;107202;1250;62074;-81
2024/03/26 00:20:50;;;;;;;;;;;;;;;;;;107177;1254;62068;-79
2024/03/26 00:23:16;;;;;;;;;;;;;;;;;;106531;1256;62083;-78
2024/03/26 00:25:43;;;;;;;;;;;;;;;;;;106520;1253;62039;-78
2024/03/26 00:28:09;;;;;;;;;;;;;;;;;;106556;1251;61921;-78
2024/03/26 00:30:35;;;;;;;;;;;;;;;;;;106635;1254;62090;-81
2024/03/26 00:33:01;;;;;;;;;;;;;;;;;;107232;1250;61063;-81
2024/03/26 00:35:27;;;;;;;;;;;;;;;;;;107219;1250;62058;-78
2024/03/26 00:37:54;;;;;;;;;;;;;;;;;;106549;1253;62150;-81
2024/03/26 00:40:20;;;;;;;;;;;;;;;;;;106529;1256;62038;-81
2024/03/26 00:42:46;;;;;;;;;;;;;;;;;;106950;1255;62030;-78
2024/03/26 00:45:12;;;;;;;;;;;;;;;;;;106616;1254;62022;-78
2024/03/26 00:47:38;;;;;;;;;;;;;;;;;;106545;1251;62074;-81
2024/03/26 00:50:04;;;;;;;;;;;;;;;;;;107221;1250;62190;-81
2024/03/26 00:52:30;;;;;;;;;;;;;;;;;;107197;1250;62162;-81
2024/03/26 00:54:57;;;;;;;;;;;;;;;;;;107191;1252;62061;-82
2024/03/26 00:57:23;;;;;;;;;;;;;;;;;;108323;1250;59912;-81
2024/03/26 00:59:49;;;;;;;;;;;;;;;;;;109679;1250;59639;-78
2024/03/26 01:02:15;;;;;;;;;;;;;;;;;;109695;1251;59658;-79
2024/03/26 01:04:42;;;;;;;;;;;;;;;;;;109696;1250;59665;-78
2024/03/26 01:07:08;;;;;;;;;;;;;;;;;;109709;1250;59777;-81
2024/03/26 01:09:34;;;;;;;;;;;;;;;;;;107619;1253;62582;-78
2024/03/26 01:12:00;;;;;;;;;;;;;;;;;;106591;1250;62173;-81
2024/03/26 01:14:27;;;;;;;;;;;;;;;;;;106551;1250;62129;-78
2024/03/26 01:16:53;;;;;;;;;;;;;;;;;;106568;1250;62086;-78
2024/03/26 01:19:19;;;;;;;;;;;;;;;;;;106569;1254;62157;-81
2024/03/26 01:21:47;;;;;;;;;;;;;;;;;;106579;1250;62137;-78
2024/03/26 01:24:13;;;;;;;;;;;;;;;;;;106630;1250;62211;-81
2024/03/26 01:26:39;;;;;;;;;;;;;;;;;;106525;1254;62050;-81
2024/03/26 01:29:06;;;;;;;;;;;;;;;;;;106587;1253;62178;-78
2024/03/26 01:31:32;;;;;;;;;;;;;;;;;;106542;1253;62197;-82
2024/03/26 01:33:58;;;;;;;;;;;;;;;;;;106493;1252;62152;-82
2024/03/26 01:36:24;;;;;;;;;;;;;;;;;;106598;1263;62073;-81
2024/03/26 01:38:50;;;;;;;;;;;;;;;;;;106535;1254;62271;-78
2024/03/26 01:41:16;;;;;;;;;;;;;;;;;;106558;1251;62069;-78
2024/03/26 01:43:43;;;;;;;;;;;;;;;;;;106556;1252;62064;-81
2024/03/26 01:46:09;;;;;;;;;;;;;;;;;;106593;1254;62231;-81
2024/03/26 01:48:35;;;;;;;;;;;;;;;;;;109306;1253;59693;-79
2024/03/26 01:51:01;;;;;;;;;;;;;;;;;;108548;1253;62211;-78
2024/03/26 01:53:28;;;;;;;;;;;;;;;;;;107208;1253;59936;-78
2024/03/26 01:55:54;;;;;;;;;;;;;;;;;;106535;1256;62060;-81
2024/03/26 01:58:20;;;;;;;;;;;;;;;;;;106636;1255;62047;-80
2024/03/26 02:00:46;;;;;;;;;;;;;;;;;;106550;1253;62138;-78
2024/03/26 02:03:12;;;;;;;;;;;;;;;;;;106571;1256;62138;-81
2024/03/26 02:05:38;;;;;;;;;;;;;;;;;;106605;1253;61916;-78
2024/03/26 02:08:05;;;;;;;;;;;;;;;;;;106579;1256;62150;-79
2024/03/26 02:10:31;;;;;;;;;;;;;;;;;;106516;1256;62064;-78
2024/03/26 02:12:57;;;;;;;;;;;;;;;;;;108449;1251;61919;-81
2024/03/26 02:15:23;;;;;;;;;;;;;;;;;;109690;1253;59862;-78
2024/03/26 02:17:49;;;;;;;;;;;;;;;;;;108068;1250;62070;-78
2024/03/26 02:20:15;;;;;;;;;;;;;;;;;;106618;1251;62025;-81
2024/03/26 02:22:42;;;;;;;;;;;;;;;;;;106599;1254;62016;-78
2024/03/26 02:25:08;;;;;;;;;;;;;;;;;;106514;1251;61961;-78
2024/03/26 02:27:34;;;;;;;;;;;;;;;;;;106575;1253;62150;-79
2024/03/26 02:30:00;;;;;;;;;;;;;;;;;;106505;1254;62131;-81
2024/03/26 02:32:27;;;;;;;;;;;;;;;;;;106520;1254;62150;-78
2024/03/26 02:34:53;;;;;;;;;;;;;;;;;;106563;1254;62215;-78
2024/03/26 02:37:19;;;;;;;;;;;;;;;;;;106512;1254;62005;-78
2024/03/26 02:39:45;;;;;;;;;;;;;;;;;;106563;1254;62069;-78
2024/03/26 02:42:11;;;;;;;;;;;;;;;;;;106573;1251;62246;-78
2024/03/26 02:44:37;;;;;;;;;;;;;;;;;;106519;1253;62182;-78
2024/03/26 02:47:04;;;;;;;;;;;;;;;;;;107336;1251;62006;-81
2024/03/26 02:49:30;;;;;;;;;;;;;;;;;;106572;1256;61960;-81
2024/03/26 02:51:56;;;;;;;;;;;;;;;;;;107259;1254;62047;-82
2024/03/26 02:54:22;;;;;;;;;;;;;;;;;;106690;1252;62285;-81
2024/03/26 02:56:48;;;;;;;;;;;;;;;;;;106675;1253;62074;-81
2024/03/26 02:59:14;;;;;;;;;;;;;;;;;;106538;1256;62131;-81
2024/03/26 03:01:41;;;;;;;;;;;;;;;;;;106600;1257;62090;-81
2024/03/26 03:04:07;;;;;;;;;;;;;;;;;;107232;1251;62088;-78
2024/03/26 03:06:33;;;;;;;;;;;;;;;;;;106845;1251;62157;-79
2024/03/26 03:09:00;;;;;;;;;;;;;;;;;;108008;1253;62180;-79
2024/03/26 03:11:26;;;;;;;;;;;;;;;;;;106686;1256;62147;-78
2024/03/26 03:13:52;;;;;;;;;;;;;;;;;;109701;1251;59605;-81
2024/03/26 03:16:18;;;;;;;;;;;;;;;;;;109679;1251;59627;-82
2024/03/26 03:18:44;;;;;;;;;;;;;;;;;;107862;1253;62152;-79
2024/03/26 03:21:11;;;;;;;;;;;;;;;;;;107267;1250;61884;-78
2024/03/26 03:23:37;;;;;;;;;;;;;;;;;;109508;1249;59784;-81
2024/03/26 03:26:03;;;;;;;;;;;;;;;;;;107328;1253;62032;-81
2024/03/26 03:28:29;;;;;;;;;;;;;;;;;;107119;1251;61984;-78
2024/03/26 03:30:55;;;;;;;;;;;;;;;;;;107185;1251;61986;-81
2024/03/26 03:33:21;;;;;;;;;;;;;;;;;;108290;1251;62070;-79
2024/03/26 03:35:47;;;;;;;;;;;;;;;;;;107557;1254;60750;-78
2024/03/26 03:38:14;;;;;;;;;;;;;;;;;;107502;1252;61034;-81
2024/03/26 03:40:40;;;;;;;;;;;;;;;;;;107395;1254;62060;-79
2024/03/26 03:43:06;;;;;;;;;;;;;;;;;;106661;1251;64039;-81
2024/03/26 03:45:32;;;;;;;;;;;;;;;;;;106652;1251;61951;-81
2024/03/26 03:47:58;;;;;;;;;;;;;;;;;;106713;1254;62580;-78
2024/03/26 03:50:24;;;;;;;;;;;;;;;;;;106696;1256;62073;-78
2024/03/26 03:52:50;;;;;;;;;;;;;;;;;;106667;1251;62006;-80
2024/03/26 03:55:17;;;;;;;;;;;;;;;;;;106631;1253;62121;-78
2024/03/26 03:57:43;;;;;;;;;;;;;;;;;;106620;1254;62127;-81
2024/03/26 04:00:09;;;;;;;;;;;;;;;;;;106651;1251;63147;-81
2024/03/26 04:02:35;;;;;;;;;;;;;;;;;;107222;1250;62072;-81
2024/03/26 04:05:02;;;;;;;;;;;;;;;;;;107225;1259;62154;-81
2024/03/26 04:07:28;;;;;;;;;;;;;;;;;;107295;1254;60704;-81
2024/03/26 04:09:54;;;;;;;;;;;;;;;;;;107236;1253;61772;-81
2024/03/26 04:12:20;;;;;;;;;;;;;;;;;;107191;1253;62527;-81
2024/03/26 04:14:47;;;;;;;;;;;;;;;;;;107310;1254;62141;-81
2024/03/26 04:17:13;;;;;;;;;;;;;;;;;;106598;1254;62096;-81
2024/03/26 04:19:39;;;;;;;;;;;;;;;;;;106611;1251;62120;-81
2024/03/26 04:22:05;;;;;;;;;;;;;;;;;;108457;1251;60991;-81
2024/03/26 04:24:31;;;;;;;;;;;;;;;;;;106550;1254;61901;-81
2024/03/26 04:26:58;;;;;;;;;;;;;;;;;;106583;1251;62059;-78
2024/03/26 04:29:24;;;;;;;;;;;;;;;;;;106607;1251;62246;-80
2024/03/26 04:31:50;;;;;;;;;;;;;;;;;;106592;1254;61961;-78
2024/03/26 04:34:17;;;;;;;;;;;;;;;;;;106590;1254;62145;-80
2024/03/26 04:36:43;;;;;;;;;;;;;;;;;;106580;1254;63297;-81
2024/03/26 04:39:09;;;;;;;;;;;;;;;;;;107246;1250;62092;-81
2024/03/26 04:41:35;;;;;;;;;;;;;;;;;;107180;1251;62146;-81
2024/03/26 04:44:02;;;;;;;;;;;;;;;;;;107232;1254;62080;-79
2024/03/26 04:46:28;;;;;;;;;;;;;;;;;;107233;1249;62155;-81
2024/03/26 04:48:54;;;;;;;;;;;;;;;;;;107247;1251;62162;-81
2024/03/26 04:51:21;;;;;;;;;;;;;;;;;;107191;1251;61968;-79
2024/03/26 04:53:47;;;;;;;;;;;;;;;;;;106618;1251;62164;-80
2024/03/26 04:56:13;;;;;;;;;;;;;;;;;;106610;1253;62150;-78
2024/03/26 04:58:40;;;;;;;;;;;;;;;;;;106658;1253;62477;-78
2024/03/26 05:01:06;;;;;;;;;;;;;;;;;;106665;1253;62086;-81
2024/03/26 05:03:32;;;;;;;;;;;;;;;;;;106642;1251;62252;-81
2024/03/26 05:05:58;;;;;;;;;;;;;;;;;;106663;1250;62107;-81
2024/03/26 05:08:24;;;;;;;;;;;;;;;;;;106664;1252;62151;-78
2024/03/26 05:10:50;;;;;;;;;;;;;;;;;;106641;1252;62541;-81
2024/03/26 05:13:17;;;;;;;;;;;;;;;;;;107212;1254;62141;-81
2024/03/26 05:15:43;;;;;;;;;;;;;;;;;;107249;1253;62164;-78
2024/03/26 05:18:09;;;;;;;;;;;;;;;;;;106664;1250;62089;-78
2024/03/26 05:20:35;;;;;;;;;;;;;;;;;;106594;1258;62135;-81
2024/03/26 05:23:01;;;;;;;;;;;;;;;;;;106602;1255;60131;-78
2024/03/26 05:25:27;;;;;;;;;;;;;;;;;;106545;1251;62029;-81
2024/03/26 05:27:54;;;;;;;;;;;;;;;;;;106591;1251;61956;-78
2024/03/26 05:30:20;;;;;;;;;;;;;;;;;;106569;1251;62061;-81
2024/03/26 05:32:46;;;;;;;;;;;;;;;;;;106683;1251;62156;-80
2024/03/26 05:35:12;;;;;;;;;;;;;;;;;;106545;1253;62173;-81
2024/03/26 05:37:38;;;;;;;;;;;;;;;;;;106587;1250;62684;-81
2024/03/26 05:40:05;;;;;;;;;;;;;;;;;;106579;1251;62134;-81
2024/03/26 05:42:31;;;;;;;;;;;;;;;;;;106574;1251;61980;-78
2024/03/26 05:44:58;;;;;;;;;;;;;;;;;;106605;1251;62186;-81
2024/03/26 05:47:25;;;;;;;;;;;;;;;;;;106591;1253;62109;-78
2024/03/26 05:49:51;;;;;;;;;;;;;;;;;;106571;1251;62166;-81
2024/03/26 05:52:17;;;;;;;;;;;;;;;;;;106518;1251;62159;-81
2024/03/26 05:54:43;;;;;;;;;;;;;;;;;;106595;1251;62151;-81
2024/03/26 05:57:09;;;;;;;;;;;;;;;;;;106607;1251;62143;-80
2024/03/26 05:59:35;;;;;;;;;;;;;;;;;;106564;1254;62159;-78
2024/03/26 06:02:02;;;;;;;;;;;;;;;;;;106622;1254;62163;-78
2024/03/26 06:04:28;;;;;;;;;;;;;;;;;;106768;1251;62062;-81
2024/03/26 06:06:54;;;;;;;;;;;;;;;;;;106741;1251;62157;-78
2024/03/26 06:09:20;;;;;;;;;;;;;;;;;;106716;1254;62308;-81
2024/03/26 06:11:46;;;;;;;;;;;;;;;;;;107129;1254;132526;-79
2024/03/26 06:14:12;;;;;;;;;;;;;;;;;;107199;1251;62445;-81
2024/03/26 06:16:39;;;;;;;;;;;;;;;;;;107363;1253;61802;-80
2024/03/26 06:19:05;;;;;;;;;;;;;;;;;;107287;1249;62121;-79
2024/03/26 06:21:31;;;;;;;;;;;;;;;;;;107730;1250;62114;-79
2024/03/26 06:23:57;;;;;;;;;;;;;;;;;;109637;1251;59966;-82
2024/03/26 06:26:23;;;;;;;;;;;;;;;;;;109682;1249;59775;-79
2024/03/26 06:28:49;;;;;;;;;;;;;;;;;;109643;1251;60012;-82
2024/03/26 06:31:16;;;;;;;;;;;;;;;;;;109677;1250;60003;-82
2024/03/26 06:33:42;;;;;;;;;;;;;;;;;;109623;1249;61424;-82
2024/03/26 06:36:09;;;;;;;;;;;;;;;;;;109273;1250;59884;-80
2024/03/26 06:38:35;;;;;;;;;;;;;;;;;;107401;1254;60769;-79
2024/03/26 06:41:01;;;;;;;;;;;;;;;;;;106524;1251;62114;-82
2024/03/26 06:43:27;;;;;;;;;;;;;;;;;;107286;1251;62018;-78
2024/03/26 06:45:53;;;;;;;;;;;;;;;;;;107284;1249;60855;-79
2024/03/26 06:48:19;;;;;;;;;;;;;;;;;;107234;1251;61981;-78
2024/03/26 06:50:45;;;;;;;;;;;;;;;;;;107225;1251;62156;-78
2024/03/26 06:53:12;;;;;;;;;;;;;;;;;;107261;1253;62114;-81
2024/03/26 06:55:38;;;;;;;;;;;;;;;;;;107445;1250;61116;-81
2024/03/26 06:58:04;;;;;;;;;;;;;;;;;;107392;1251;62077;-81
2024/03/26 07:00:30;;;;;;;;;;;;;;;;;;107545;1253;62117;-78
2024/03/26 07:02:57;;;;;;;;;;;;;;;;;;107422;1253;62012;-78
2024/03/26 07:05:23;;;;;;;;;;;;;;;;;;107389;1250;62134;-78
2024/03/26 07:07:49;;;;;;;;;;;;;;;;;;107406;1249;62143;-78
2024/03/26 07:10:15;;;;;;;;;;;;;;;;;;107388;1250;62054;-78
2024/03/26 07:12:42;;;;;;;;;;;;;;;;;;107395;1250;62141;-78
2024/03/26 07:15:08;;;;;;;;;;;;;;;;;;107369;1253;61874;-81
2024/03/26 07:17:34;;;;;;;;;;;;;;;;;;107400;1250;62085;-81
2024/03/26 07:20:00;;;;;;;;;;;;;;;;;;107547;1250;62749;-82
2024/03/26 07:22:27;;;;;;;;;;;;;;;;;;107363;1252;62031;-79
2024/03/26 07:24:53;;;;;;;;;;;;;;;;;;107579;1249;62666;-82
2024/03/26 07:27:20;;;;;;;;;;;;;;;;;;107424;1251;62133;-82
2024/03/26 07:29:46;;;;;;;;;;;;;;;;;;107600;1250;62032;-79
2024/03/26 07:32:12;;;;;;;;;;;;;;;;;;107410;1250;62156;-78
2024/03/26 07:34:38;;;;;;;;;;;;;;;;;;107343;1249;62102;-79
2024/03/26 07:37:05;;;;;;;;;;;;;;;;;;107345;1250;62145;-79
2024/03/26 07:39:31;;;;;;;;;;;;;;;;;;107280;1250;62162;-79
2024/03/26 07:41:57;;;;;;;;;;;;;;;;;;107359;1251;62432;-83
2024/03/26 07:44:23;;;;;;;;;;;;;;;;;;107230;1249;62038;-82
2024/03/26 07:46:49;;;;;;;;;;;;;;;;;;107400;1250;62057;-82
2024/03/26 07:49:15;;;;;;;;;;;;;;;;;;107215;1250;62041;-79
2024/03/26 07:51:41;;;;;;;;;;;;;;;;;;107376;1253;62111;-79
2024/03/26 07:54:09;;;;;;;;;;;;;;;;;;107356;1250;62146;-81
2024/03/26 07:56:37;;;;;;;;;;;;;;;;;;107264;1250;60698;-80
2024/03/26 07:59:04;;;;;;;;;;;;;;;;;;107517;1250;61911;-79
2024/03/26 08:01:30;;;;;;;;;;;;;;;;;;107342;1253;62541;-81
2024/03/26 08:03:56;;;;;;;;;;;;;;;;;;107471;1254;62153;-82
2024/03/26 08:06:22;;;;;;;;;;;;;;;;;;107322;1253;62119;-79
2024/03/26 08:08:50;;;;;;;;;;;;;;;;;;107461;1250;62140;-79
2024/03/26 08:11:16;;;;;;;;;;;;;;;;;;107545;1249;62054;-82
2024/03/26 08:13:42;;;;;;;;;;;;;;;;;;107514;1251;62055;-83
2024/03/26 08:16:08;;;;;;;;;;;;;;;;;;107754;1250;60020;-79
2024/03/26 08:18:34;;;;;;;;;;;;;;;;;;107442;1252;62077;-80
2024/03/26 08:21:01;;;;;;;;;;;;;;;;;;107408;1248;60056;-83
2024/03/26 08:23:27;;;;;;;;;;;;;;;;;;107313;1253;61858;-82
2024/03/26 08:25:53;;;;;;;;;;;;;;;;;;107404;1249;63166;-82
2024/03/26 08:28:19;;;;;;;;;;;;;;;;;;107332;1250;62130;-79
2024/03/26 08:30:45;;;;;;;;;;;;;;;;;;107206;1249;62133;-79
2024/03/26 08:33:11;;;;;;;;;;;;;;;;;;107329;1250;62099;-82
2024/03/26 08:35:39;;;;;;;;;;;;;;;;;;107673;1250;62186;-82
2024/03/26 08:38:05;;;;;;;;;;;;;;;;;;107250;1250;62124;-82
2024/03/26 08:40:31;;;;;;;;;;;;;;;;;;107453;1251;62124;-80
2024/03/26 08:42:58;;;;;;;;;;;;;;;;;;107470;1251;62702;-79
2024/03/26 08:45:24;;;;;;;;;;;;;;;;;;107406;1250;62010;-80
2024/03/26 08:47:50;;;;;;;;;;;;;;;;;;107445;1250;62571;-79
2024/03/26 08:50:17;;;;;;;;;;;;;;;;;;107230;1250;62859;-82
2024/03/26 08:52:43;;;;;;;;;;;;;;;;;;107332;1249;62605;-82
2024/03/26 08:55:09;;;;;;;;;;;;;;;;;;107413;1250;62179;-80
2024/03/26 08:57:35;;;;;;;;;;;;;;;;;;107405;1251;63150;-82
2024/03/26 09:00:03;;;;;;;;;;;;;;;;;;107464;1250;62071;-80
2024/03/26 09:02:29;;;;;;;;;;;;;;;;;;107256;1254;61994;-82
2024/03/26 09:04:56;;;;;;;;;;;;;;;;;;107384;1250;60724;-82
2024/03/26 09:07:22;;;;;;;;;;;;;;;;;;107287;1250;60513;-79
2024/03/26 09:09:49;;;;;;;;;;;;;;;;;;107274;1251;63076;-79
2024/03/26 09:12:15;;;;;;;;;;;;;;;;;;107310;1250;62073;-82
2024/03/26 09:14:41;;;;;;;;;;;;;;;;;;107506;1251;64228;-79
2024/03/26 09:17:07;;;;;;;;;;;;;;;;;;107367;1250;62016;-78
2024/03/26 09:19:33;;;;;;;;;;;;;;;;;;106652;1249;62485;-81
2024/03/26 09:22:00;;;;;;;;;;;;;;;;;;107521;1249;62111;-78
2024/03/26 09:24:26;;;;;;;;;;;;;;;;;;107434;1249;62156;-79
2024/03/26 09:26:53;;;;;;;;;;;;;;;;;;107967;1250;61943;-79
2024/03/26 09:29:19;;;;;;;;;;;;;;;;;;107513;1250;60459;-80
2024/03/26 09:31:45;;;;;;;;;;;;;;;;;;107479;1251;62156;-81
2024/03/26 09:34:12;;;;;;;;;;;;;;;;;;107477;1254;62041;-79
2024/03/26 09:36:38;;;;;;;;;;;;;;;;;;107319;1249;62057;-79
2024/03/26 09:39:04;;;;;;;;;;;;;;;;;;107321;1253;62065;-79
2024/03/26 09:41:30;;;;;;;;;;;;;;;;;;107324;1251;62125;-82
2024/03/26 09:43:56;;;;;;;;;;;;;;;;;;107459;1250;62049;-81
2024/03/26 09:46:23;;;;;;;;;;;;;;;;;;107561;1254;61785;-79
2024/03/26 09:48:49;;;;;;;;;;;;;;;;;;107643;1249;62121;-82
2024/03/26 09:51:15;;;;;;;;;;;;;;;;;;107525;1249;63275;-79
2024/03/26 09:53:42;;;;;;;;;;;;;;;;;;107406;1250;61965;-81
2024/03/26 09:56:08;;;;;;;;;;;;;;;;;;107453;1250;61945;-79
2024/03/26 09:58:34;;;;;;;;;;;;;;;;;;107426;1251;62782;-79
2024/03/26 10:01:00;;;;;;;;;;;;;;;;;;106690;1250;64094;-81
2024/03/26 10:03:26;;;;;;;;;;;;;;;;;;107244;1254;62098;-78
2024/03/26 10:05:53;;;;;;;;;;;;;;;;;;107481;1254;62133;-81
2024/03/26 10:08:19;;;;;;;;;;;;;;;;;;107383;1250;62123;-81
2024/03/26 10:10:45;;;;;;;;;;;;;;;;;;107404;1250;62112;-79
2024/03/26 10:13:12;;;;;;;;;;;;;;;;;;107819;1249;62146;-80
2024/03/26 10:15:46;;;;;;;;;;;;;;;;;;107306;1253;60369;-81
2024/03/26 10:18:12;;;;;;;;;;;;;;;;;;107499;1251;61397;-81
2024/03/26 10:20:38;;;;;;;;;;;;;;;;;;107303;1250;62074;-81
2024/03/26 10:23:05;;;;;;;;;;;;;;;;;;107349;1251;59964;-79
2024/03/26 10:25:31;;;;;;;;;;;;;;;;;;107417;1249;63721;-82
2024/03/26 10:27:57;;;;;;;;;;;;;;;;;;107394;1250;62627;-79
2024/03/26 10:30:23;;;;;;;;;;;;;;;;;;107237;1253;62135;-82
2024/03/26 10:32:49;;;;;;;;;;;;;;;;;;107419;1251;61977;-82
2024/03/26 10:35:15;;;;;;;;;;;;;;;;;;107529;1254;62145;-82
2024/03/26 10:37:41;;;;;;;;;;;;;;;;;;107432;1250;62148;-83
2024/03/26 10:40:08;;;;;;;;;;;;;;;;;;107352;1250;62074;-82
2024/03/26 10:42:34;;;;;;;;;;;;;;;;;;107300;1253;60368;-82
2024/03/26 10:45:00;;;;;;;;;;;;;;;;;;107455;1250;62010;-82
2024/03/26 10:47:26;;;;;;;;;;;;;;;;;;107588;1254;61595;-82
2024/03/26 10:49:52;;;;;;;;;;;;;;;;;;107331;1250;62149;-79
2024/03/26 10:52:19;;;;;;;;;;;;;;;;;;107468;1249;61274;-82
2024/03/26 10:54:45;;;;;;;;;;;;;;;;;;107731;1250;62343;-78
2024/03/26 10:57:12;;;;;;;;;;;;;;;;;;107689;1254;60288;-81
2024/03/26 10:59:38;;;;;;;;;;;;;;;;;;107565;1253;61950;-79
2024/03/26 11:02:04;;;;;;;;;;;;;;;;;;107444;1250;61007;-79
2024/03/26 11:04:30;;;;;;;;;;;;;;;;;;107521;1250;62151;-78
2024/03/26 11:06:56;;;;;;;;;;;;;;;;;;107574;1250;62109;-81
2024/03/26 11:09:23;;;;;;;;;;;;;;;;;;107376;1250;62145;-78
2024/03/26 11:11:49;;;;;;;;;;;;;;;;;;106729;1251;62153;-79
2024/03/26 11:14:15;;;;;;;;;;;;;;;;;;106799;1254;62181;-81
2024/03/26 11:16:41;;;;;;;;;;;;;;;;;;106689;1249;62126;-78
2024/03/26 11:19:07;;;;;;;;;;;;;;;;;;106622;1253;62233;-78
2024/03/26 11:21:33;;;;;;;;;;;;;;;;;;107188;1249;62089;-80
2024/03/26 11:24:00;;;;;;;;;;;;;;;;;;106757;1254;62236;-78
2024/03/26 11:26:26;;;;;;;;;;;;;;;;;;106722;1250;61907;-81
2024/03/26 11:28:52;;;;;;;;;;;;;;;;;;107297;1254;61994;-80
2024/03/26 11:31:18;;;;;;;;;;;;;;;;;;106798;1253;62079;-80
2024/03/26 11:33:44;;;;;;;;;;;;;;;;;;106667;1255;62142;-80
2024/03/26 11:36:10;;;;;;;;;;;;;;;;;;106617;1250;62885;-80
2024/03/26 11:38:37;;;;;;;;;;;;;;;;;;109374;1250;59814;-78
2024/03/26 11:41:03;;;;;;;;;;;;;;;;;;109638;1250;59834;-79
2024/03/26 11:43:29;;;;;;;;;;;;;;;;;;109562;1249;59883;-79
2024/03/26 11:45:55;;;;;;;;;;;;;;;;;;109595;1250;59657;-78
2024/03/26 11:48:21;;;;;;;;;;;;;;;;;;109536;1249;59977;-81
2024/03/26 11:50:47;;;;;;;;;;;;;;;;;;109689;1248;59556;-79
2024/03/26 11:53:14;;;;;;;;;;;;;;;;;;109585;1253;59793;-78
2024/03/26 11:55:40;;;;;;;;;;;;;;;;;;109551;1249;60702;-80
2024/03/26 11:58:06;;;;;;;;;;;;;;;;;;109510;1249;59986;-78
2024/03/26 12:00:32;;;;;;;;;;;;;;;;;;109589;1249;60118;-80
2024/03/26 12:02:58;;;;;;;;;;;;;;;;;;109605;1249;59679;-81
2024/03/26 12:05:24;;;;;;;;;;;;;;;;;;109579;1249;59886;-79
2024/03/26 12:07:51;;;;;;;;;;;;;;;;;;109551;1249;59799;-81
2024/03/26 12:10:17;;;;;;;;;;;;;;;;;;109609;1248;59768;-81
2024/03/26 12:12:43;;;;;;;;;;;;;;;;;;109634;1248;60079;-79
2024/03/26 12:15:09;;;;;;;;;;;;;;;;;;109766;1250;59971;-81
2024/03/26 12:17:35;;;;;;;;;;;;;;;;;;109590;1249;59684;-81
2024/03/26 12:20:01;;;;;;;;;;;;;;;;;;109596;1250;59844;-81
2024/03/26 12:22:28;;;;;;;;;;;;;;;;;;107657;1252;60583;-78
2024/03/26 12:24:54;;;;;;;;;;;;;;;;;;106855;1251;63431;-80
2024/03/26 12:27:20;;;;;;;;;;;;;;;;;;106791;1254;62119;-78
2024/03/26 12:29:46;;;;;;;;;;;;;;;;;;106794;1250;62032;-78
2024/03/26 12:32:13;;;;;;;;;;;;;;;;;;106765;1253;62032;-81
2024/03/26 12:34:40;;;;;;;;;;;;;;;;;;109587;1249;60011;-78
2024/03/26 12:37:06;;;;;;;;;;;;;;;;;;109524;1250;60271;-81
2024/03/26 12:39:32;;;;;;;;;;;;;;;;;;109598;1250;59808;-78
2024/03/26 12:41:58;;;;;;;;;;;;;;;;;;109604;1249;59990;-78
2024/03/26 12:44:28;;;;;;;;;;;;;;;;;;109590;1249;60255;-78
2024/03/26 12:46:56;;;;;;;;;;;;;;;;;;109617;1249;59944;-81
2024/03/26 12:49:22;;;;;;;;;;;;;;;;;;109553;1252;62720;-81
2024/03/26 12:51:48;;;;;;;;;;;;;;;;;;109625;1249;59882;-79
2024/03/26 12:54:14;;;;;;;;;;;;;;;;;;109605;1249;59855;-81
2024/03/26 12:56:40;;;;;;;;;;;;;;;;;;109596;1250;60035;-79
2024/03/26 12:59:07;;;;;;;;;;;;;;;;;;109232;1248;62119;-78
2024/03/26 13:01:33;;;;;;;;;;;;;;;;;;106899;1252;60728;-78
2024/03/26 13:03:59;;;;;;;;;;;;;;;;;;106711;1250;62007;-78
2024/03/26 13:06:25;;;;;;;;;;;;;;;;;;106676;1253;62087;-80
2024/03/26 13:08:52;;;;;;;;;;;;;;;;;;107239;1249;62096;-80
2024/03/26 13:11:18;;;;;;;;;;;;;;;;;;107291;1254;62131;-78
2024/03/26 13:13:44;;;;;;;;;;;;;;;;;;106782;1250;62131;-78
2024/03/26 13:16:10;;;;;;;;;;;;;;;;;;106678;1253;62086;-78
2024/03/26 13:18:36;;;;;;;;;;;;;;;;;;106599;1250;62236;-80
2024/03/26 13:21:03;;;;;;;;;;;;;;;;;;106567;1251;62073;-78
2024/03/26 13:23:29;;;;;;;;;;;;;;;;;;106710;1253;62094;-78
2024/03/26 13:25:55;;;;;;;;;;;;;;;;;;106580;1251;62033;-81
2024/03/26 13:28:21;;;;;;;;;;;;;;;;;;107273;1250;62157;-81
2024/03/26 13:30:48;;;;;;;;;;;;;;;;;;107483;1248;62069;-78
2024/03/26 13:33:14;;;;;;;;;;;;;;;;;;107357;1252;62000;-82
2024/03/26 13:35:40;;;;;;;;;;;;;;;;;;107132;1251;62028;-79
2024/03/26 13:38:09;;;;;;;;;;;;;;;;;;107181;1251;63294;-82
2024/03/26 13:40:35;;;;;;;;;;;;;;;;;;107237;1251;62059;-82
2024/03/26 13:43:02;;;;;;;;;;;;;;;;;;107383;1251;62048;-78
2024/03/26 13:45:28;;;;;;;;;;;;;;;;;;107320;1250;62067;-79
2024/03/26 13:47:54;;;;;;;;;;;;;;;;;;107444;1250;62036;-79
2024/03/26 13:50:20;;;;;;;;;;;;;;;;;;107144;1253;62235;-81
2024/03/26 13:52:47;;;;;;;;;;;;;;;;;;107341;1250;62036;-81
2024/03/26 13:55:13;;;;;;;;;;;;;;;;;;107288;1251;62052;-80
2024/03/26 13:57:39;;;;;;;;;;;;;;;;;;107256;1253;62077;-78
2024/03/26 14:00:07;;;;;;;;;;;;;;;;;;106626;1254;62049;-81
2024/03/26 14:02:33;;;;;;;;;;;;;;;;;;107428;1253;62172;-79
2024/03/26 14:05:00;;;;;;;;;;;;;;;;;;107239;1251;62079;-81
2024/03/26 14:07:26;;;;;;;;;;;;;;;;;;107226;1250;62150;-81
2024/03/26 14:09:52;;;;;;;;;;;;;;;;;;107150;1250;60280;-78
2024/03/26 14:12:18;;;;;;;;;;;;;;;;;;107120;1254;62141;-81
2024/03/26 14:14:45;;;;;;;;;;;;;;;;;;107288;1248;62371;-79
2024/03/26 14:17:11;;;;;;;;;;;;;;;;;;106797;1248;62096;-78
2024/03/26 14:19:37;;;;;;;;;;;;;;;;;;106826;1252;62068;-79
2024/03/26 14:22:03;;;;;;;;;;;;;;;;;;106609;1251;62008;-78
2024/03/26 14:24:29;;;;;;;;;;;;;;;;;;106680;1253;62058;-81
2024/03/26 14:26:55;;;;;;;;;;;;;;;;;;107590;1250;62066;-79
2024/03/26 14:29:24;;;;;;;;;;;;;;;;;;107550;1255;62895;-81
2024/03/26 14:31:50;;;;;;;;;;;;;;;;;;107263;1254;62099;-80
2024/03/26 14:34:16;;;;;;;;;;;;;;;;;;107223;1250;62058;-78
2024/03/26 14:36:44;;;;;;;;;;;;;;;;;;107118;1254;62173;-81
2024/03/26 14:39:10;;;;;;;;;;;;;;;;;;107116;1255;61647;-79
2024/03/26 14:41:36;;;;;;;;;;;;;;;;;;107081;1250;60561;-78
2024/03/26 14:44:03;;;;;;;;;;;;;;;;;;107219;1251;63644;-79
2024/03/26 14:46:29;;;;;;;;;;;;;;;;;;107137;1250;62086;-81
2024/03/26 14:48:55;;;;;;;;;;;;;;;;;;107214;1253;62060;-79
2024/03/26 14:51:22;;;;;;;;;;;;;;;;;;106939;1250;62063;-82
2024/03/26 14:53:48;;;;;;;;;;;;;;;;;;107100;1250;62272;-82
2024/03/26 14:56:14;;;;;;;;;;;;;;;;;;107200;1251;62071;-82
2024/03/26 14:58:41;;;;;;;;;;;;;;;;;;107200;1250;62544;-80
2024/03/26 15:01:07;;;;;;;;;;;;;;;;;;107611;1250;62114;-78
2024/03/26 15:03:33;;;;;;;;;;;;;;;;;;106704;1248;62044;-77
2024/03/26 15:05:59;;;;;;;;;;;;;;;;;;106539;1250;62172;-82
2024/03/26 15:08:25;;;;;;;;;;;;;;;;;;106940;1249;62152;-82
2024/03/26 15:10:52;;;;;;;;;;;;;;;;;;106914;1250;62074;-78
2024/03/26 15:13:18;;;;;;;;;;;;;;;;;;106556;1254;62035;-80
2024/03/26 15:15:44;;;;;;;;;;;;;;;;;;106425;1254;62092;-80
2024/03/26 15:18:11;;;;;;;;;;;;;;;;;;106542;1250;62137;-78
2024/03/26 15:20:38;;;;;;;;;;;;;;;;;;106574;1250;63902;-80
2024/03/26 15:23:04;;;;;;;;;;;;;;;;;;106619;1250;62225;-78
2024/03/26 15:25:30;;;;;;;;;;;;;;;;;;106576;1248;62090;-78
2024/03/26 15:33:26;;;;;;;;;;;;;;;;;;106624;1250;62101;-80
2024/03/26 15:35:52;;;;;;;;;;;;;;;;;;106447;1250;62087;-80
2024/03/26 15:38:20;;;;;;;;;;;;;;;;;;106441;1255;62162;-78
2024/03/26 15:40:46;;;;;;;;;;;;;;;;;;106494;1253;61966;-80
2024/03/26 15:43:13;;;;;;;;;;;;;;;;;;106441;1250;62064;-80
2024/03/26 15:45:39;;;;;;;;;;;;;;;;;;106466;1250;62124;-78
2024/03/26 15:48:05;;;;;;;;;;;;;;;;;;106356;1250;62477;-77
2024/03/26 15:50:32;;;;;;;;;;;;;;;;;;106543;1252;62030;-82
2024/03/26 15:52:58;;;;;;;;;;;;;;;;;;107064;1250;63235;-80
2024/03/26 15:55:24;;;;;;;;;;;;;;;;;;106894;1250;62075;-80
2024/03/26 15:57:50;;;;;;;;;;;;;;;;;;106848;1248;62147;-81
2024/03/26 16:00:18;;;;;;;;;;;;;;;;;;107124;1248;62242;-80
2024/03/26 16:02:44;;;;;;;;;;;;;;;;;;106967;1250;62561;-77
2024/03/26 16:05:11;;;;;;;;;;;;;;;;;;106433;1253;62109;-79
2024/03/26 16:07:37;;;;;;;;;;;;;;;;;;106410;1250;62185;-81
2024/03/26 16:10:04;;;;;;;;;;;;;;;;;;106955;1250;62316;-81
2024/03/26 16:12:31;;;;;;;;;;;;;;;;;;106995;1248;62067;-81
2024/03/26 16:14:57;;;;;;;;;;;;;;;;;;106962;1250;63228;-79
2024/03/26 16:17:23;;;;;;;;;;;;;;;;;;107052;1254;62030;-81
2024/03/26 16:19:50;;;;;;;;;;;;;;;;;;107333;1254;62016;-78
2024/03/26 16:22:16;;;;;;;;;;;;;;;;;;106608;1254;63225;-81
2024/03/26 16:24:42;;;;;;;;;;;;;;;;;;107273;1250;62148;-80
2024/03/26 16:27:09;;;;;;;;;;;;;;;;;;107281;1254;62156;-81